Time;durP1;ratioP1;P1;durP2;ratioP2;P2;SDS_P1;SDS_P2;PMS_P1;PMS_P2;Temp;Humidity;BMP_temperature;BMP_pressure;BME280_temperature;BME280_humidity;BME280_pressure;Samples;Min_cycle;Max_cycle;Signal;HPM_P1;HPM_P2
2020/12/04 00:01:33;;;;;;;42.97;4.93;;;;;;;;;;5008767;28;20538;-59
2020/12/04 00:04:00;;;;;;;44.92;4.70;;;;;;;;;;5008916;28;20022;-59
2020/12/04 00:06:27;;;;;;;50.22;4.95;;;;;;;;;;5008629;28;20088;-58
2020/12/04 00:08:54;;;;;;;47.92;4.60;;;;;;;;;;5006657;28;20018;-59
2020/12/04 00:11:21;;;;;;;36.92;5.05;;;;;;;;;;5010721;28;20617;-60
2020/12/04 00:13:48;;;;;;;51.97;6.20;;;;;;;;;;4989820;28;20385;-60
2020/12/04 00:16:15;;;;;;;46.65;5.13;;;;;;;;;;5011796;28;20045;-59
2020/12/04 00:18:42;;;;;;;52.65;6.65;;;;;;;;;;5009071;28;20141;-59
2020/12/04 00:21:09;;;;;;;46.97;6.13;;;;;;;;;;4991933;28;20431;-59
2020/12/04 00:23:36;;;;;;;36.45;5.60;;;;;;;;;;5008694;28;20119;-58
2020/12/04 00:26:03;;;;;;;38.55;5.10;;;;;;;;;;5009904;28;20417;-60
2020/12/04 00:28:30;;;;;;;32.15;5.50;;;;;;;;;;5013968;28;20032;-59
2020/12/04 00:30:57;;;;;;;47.80;5.55;;;;;;;;;;5012612;28;20593;-59
2020/12/04 00:33:24;;;;;;;47.67;5.93;;;;;;;;;;5016243;28;20518;-59
2020/12/04 00:35:51;;;;;;;34.90;4.68;;;;;;;;;;5016198;28;20037;-60
2020/12/04 00:38:18;;;;;;;35.80;5.00;;;;;;;;;;5008523;28;20080;-60
2020/12/04 00:40:46;;;;;;;51.25;5.75;;;;;;;;;;4992959;28;20077;-59
2020/12/04 00:43:13;;;;;;;36.35;5.68;;;;;;;;;;5009140;28;20021;-60
2020/12/04 00:45:40;;;;;;;34.47;4.50;;;;;;;;;;5008305;28;20033;-59
2020/12/04 00:48:07;;;;;;;31.50;5.43;;;;;;;;;;5011074;28;20108;-60
2020/12/04 00:50:34;;;;;;;34.30;4.95;;;;;;;;;;5012622;28;20690;-60
2020/12/04 00:53:01;;;;;;;23.52;4.10;;;;;;;;;;5008555;28;20109;-60
2020/12/04 00:55:27;;;;;;;30.10;4.50;;;;;;;;;;5011564;28;20053;-60
2020/12/04 00:57:54;;;;;;;25.80;4.07;;;;;;;;;;4995771;28;20036;-61
2020/12/04 01:00:22;;;;;;;35.28;4.90;;;;;;;;;;5007726;28;20465;-60
2020/12/04 01:02:49;;;;;;;33.13;5.07;;;;;;;;;;5012297;28;20108;-59
2020/12/04 01:05:15;;;;;;;32.03;4.15;;;;;;;;;;5011335;28;20033;-59
2020/12/04 01:07:42;;;;;;;28.88;4.53;;;;;;;;;;4990317;28;20440;-59
2020/12/04 01:10:10;;;;;;;30.55;5.05;;;;;;;;;;5011721;28;20127;-59
2020/12/04 01:12:37;;;;;;;26.45;4.07;;;;;;;;;;5011284;28;20626;-59
2020/12/04 01:15:04;;;;;;;26.80;3.50;;;;;;;;;;5013863;28;20464;-59
2020/12/04 01:17:31;;;;;;;25.58;3.67;;;;;;;;;;4988772;28;20469;-59
2020/12/04 01:19:58;;;;;;;32.95;5.13;;;;;;;;;;4989650;28;20029;-59
2020/12/04 01:22:25;;;;;;;35.70;4.43;;;;;;;;;;5008548;28;20071;-59
2020/12/04 01:24:52;;;;;;;37.22;4.78;;;;;;;;;;5007875;28;20022;-58
2020/12/04 01:27:19;;;;;;;33.40;4.05;;;;;;;;;;5007984;28;20038;-58
2020/12/04 01:29:46;;;;;;;32.88;4.88;;;;;;;;;;5010547;28;20033;-58
2020/12/04 01:32:13;;;;;;;36.67;4.97;;;;;;;;;;5006074;28;20010;-60
2020/12/04 01:34:40;;;;;;;43.42;4.45;;;;;;;;;;5001030;28;20497;-61
2020/12/04 01:37:07;;;;;;;32.17;4.13;;;;;;;;;;5014274;28;20409;-58
2020/12/04 01:39:34;;;;;;;29.77;4.60;;;;;;;;;;5011217;28;20373;-59
2020/12/04 01:42:02;;;;;;;33.80;4.80;;;;;;;;;;5015675;28;20018;-59
2020/12/04 01:44:28;;;;;;;41.15;4.47;;;;;;;;;;5016078;28;20025;-61
2020/12/04 01:46:55;;;;;;;38.30;4.05;;;;;;;;;;5016083;28;20022;-59
2020/12/04 01:49:23;;;;;;;31.73;4.10;;;;;;;;;;5015526;28;20026;-59
2020/12/04 01:51:51;;;;;;;29.70;4.32;;;;;;;;;;5014441;28;20018;-58
2020/12/04 01:54:18;;;;;;;37.60;3.90;;;;;;;;;;5016290;28;20114;-56
2020/12/04 01:56:46;;;;;;;32.40;3.90;;;;;;;;;;5015432;28;20032;-61
2020/12/04 01:59:13;;;;;;;27.58;3.75;;;;;;;;;;5014952;28;20040;-60
2020/12/04 02:01:43;;;;;;;44.22;3.92;;;;;;;;;;5001117;28;20033;-61
2020/12/04 02:04:15;;;;;;;34.63;4.20;;;;;;;;;;5009322;28;20533;-59
2020/12/04 02:06:42;;;;;;;35.43;3.83;;;;;;;;;;4995017;28;20026;-59
2020/12/04 02:09:10;;;;;;;31.02;3.28;;;;;;;;;;4995067;28;20360;-59
2020/12/04 02:11:37;;;;;;;30.88;4.95;;;;;;;;;;4995615;28;20022;-59
2020/12/04 02:14:05;;;;;;;27.33;3.33;;;;;;;;;;4996153;28;20018;-59
2020/12/04 02:16:33;;;;;;;23.73;3.65;;;;;;;;;;4996134;28;20457;-59
2020/12/04 02:19:00;;;;;;;28.45;3.28;;;;;;;;;;5008918;28;20018;-59
2020/12/04 02:21:28;;;;;;;36.22;3.38;;;;;;;;;;5015371;28;20057;-59
2020/12/04 02:23:55;;;;;;;25.95;3.53;;;;;;;;;;5014399;28;20014;-59
2020/12/04 02:26:22;;;;;;;33.88;3.40;;;;;;;;;;5013575;28;20681;-59
2020/12/04 02:28:50;;;;;;;33.20;3.35;;;;;;;;;;5014978;28;20588;-58
2020/12/04 02:31:21;;;;;;;26.25;3.17;;;;;;;;;;5014850;28;20037;-58
2020/12/04 02:33:48;;;;;;;29.92;3.33;;;;;;;;;;5014488;28;20030;-59
2020/12/04 02:36:15;;;;;;;28.17;3.90;;;;;;;;;;5014617;28;20037;-59
2020/12/04 02:38:42;;;;;;;25.88;3.33;;;;;;;;;;5012746;28;20366;-59
2020/12/04 02:41:10;;;;;;;30.88;3.60;;;;;;;;;;5015373;28;20014;-58
2020/12/04 02:43:37;;;;;;;40.10;4.13;;;;;;;;;;5014980;28;20029;-59
2020/12/04 02:46:07;;;;;;;28.38;4.00;;;;;;;;;;5014731;28;20018;-58
2020/12/04 02:48:34;;;;;;;19.23;3.08;;;;;;;;;;5015186;28;20038;-59
2020/12/04 02:51:01;;;;;;;32.85;3.55;;;;;;;;;;5015054;28;20470;-59
2020/12/04 02:53:28;;;;;;;36.78;3.63;;;;;;;;;;5015021;28;20030;-59
2020/12/04 02:55:55;;;;;;;20.20;3.28;;;;;;;;;;5014971;28;20499;-60
2020/12/04 02:58:22;;;;;;;20.70;3.03;;;;;;;;;;5014724;28;20469;-59
2020/12/04 03:00:49;;;;;;;27.65;3.65;;;;;;;;;;5014551;28;20412;-59
2020/12/04 03:03:16;;;;;;;24.02;3.30;;;;;;;;;;5005988;28;20482;-57
2020/12/04 03:05:43;;;;;;;26.52;3.28;;;;;;;;;;5007428;28;20118;-58
2020/12/04 03:08:10;;;;;;;26.23;3.33;;;;;;;;;;4994098;28;20022;-59
2020/12/04 03:10:37;;;;;;;30.85;4.22;;;;;;;;;;4995012;28;20023;-59
2020/12/04 03:13:05;;;;;;;17.42;2.47;;;;;;;;;;4994067;28;20425;-58
2020/12/04 03:15:32;;;;;;;23.27;3.20;;;;;;;;;;5009298;28;20034;-59
2020/12/04 03:17:59;;;;;;;23.92;3.22;;;;;;;;;;4994668;28;20026;-59
2020/12/04 03:20:26;;;;;;;13.43;2.38;;;;;;;;;;4994063;28;20034;-59
2020/12/04 03:22:53;;;;;;;18.00;2.88;;;;;;;;;;5009471;28;20026;-59
2020/12/04 03:25:20;;;;;;;16.02;2.38;;;;;;;;;;4993796;28;20058;-59
2020/12/04 03:27:47;;;;;;;13.05;2.33;;;;;;;;;;4994326;28;20032;-59
2020/12/04 03:30:14;;;;;;;21.48;2.88;;;;;;;;;;4993807;28;20033;-58
2020/12/04 03:32:41;;;;;;;18.05;2.67;;;;;;;;;;4995285;28;20054;-59
2020/12/04 03:35:08;;;;;;;12.43;2.42;;;;;;;;;;4993627;28;20026;-59
2020/12/04 03:37:35;;;;;;;15.52;2.53;;;;;;;;;;5009143;28;20018;-59
2020/12/04 03:40:02;;;;;;;11.95;2.13;;;;;;;;;;4993848;28;20026;-58
2020/12/04 03:42:29;;;;;;;20.17;2.75;;;;;;;;;;4994199;28;20378;-58
2020/12/04 03:44:55;;;;;;;12.90;2.30;;;;;;;;;;4993587;28;20643;-58
2020/12/04 03:47:22;;;;;;;15.05;1.98;;;;;;;;;;4994016;28;20054;-59
2020/12/04 03:49:49;;;;;;;14.88;2.40;;;;;;;;;;4994034;28;20022;-58
2020/12/04 03:52:20;;;;;;;15.25;2.35;;;;;;;;;;4993573;28;20018;-58
2020/12/04 03:54:48;;;;;;;16.20;2.45;;;;;;;;;;4992478;28;20397;-60
2020/12/04 03:57:15;;;;;;;10.93;2.15;;;;;;;;;;4992878;28;20030;-59
2020/12/04 03:59:42;;;;;;;14.30;2.10;;;;;;;;;;4993670;28;20359;-60
2020/12/04 04:02:09;;;;;;;17.25;2.10;;;;;;;;;;4992809;28;20109;-59
2020/12/04 04:04:36;;;;;;;13.80;1.95;;;;;;;;;;4993998;28;20492;-60
2020/12/04 04:07:03;;;;;;;12.45;2.10;;;;;;;;;;4993315;28;20026;-59
2020/12/04 04:09:30;;;;;;;10.38;2.15;;;;;;;;;;4993800;28;20057;-60
2020/12/04 04:11:57;;;;;;;13.45;2.40;;;;;;;;;;4993087;28;20025;-59
2020/12/04 04:14:24;;;;;;;10.65;2.33;;;;;;;;;;4993494;28;20048;-59
2020/12/04 04:16:51;;;;;;;17.05;2.60;;;;;;;;;;4993359;28;20034;-59
2020/12/04 04:19:18;;;;;;;12.00;2.00;;;;;;;;;;4993197;28;20142;-60
2020/12/04 04:21:45;;;;;;;11.77;2.00;;;;;;;;;;4993477;28;20470;-59
2020/12/04 04:24:12;;;;;;;6.93;1.75;;;;;;;;;;4992969;28;20022;-58
2020/12/04 04:26:39;;;;;;;14.73;2.70;;;;;;;;;;4993321;28;20084;-59
2020/12/04 04:29:06;;;;;;;10.75;2.15;;;;;;;;;;4992631;28;20035;-59
2020/12/04 04:31:33;;;;;;;13.70;2.15;;;;;;;;;;4993208;28;20214;-59
2020/12/04 04:34:00;;;;;;;8.15;1.58;;;;;;;;;;4992707;28;20037;-57
2020/12/04 04:36:27;;;;;;;9.18;1.60;;;;;;;;;;4992877;28;20056;-59
2020/12/04 04:38:54;;;;;;;9.27;1.73;;;;;;;;;;4991395;28;20613;-58
2020/12/04 04:41:21;;;;;;;7.70;1.90;;;;;;;;;;5008183;28;20406;-59
2020/12/04 04:43:48;;;;;;;11.80;2.10;;;;;;;;;;4992894;28;20014;-60
2020/12/04 04:46:51;;;;;;;13.93;1.73;;;;;;;;;;4992321;28;20026;-59
2020/12/04 04:49:27;;;;;;;10.93;1.85;;;;;;;;;;4913837;29;20032;-60
2020/12/04 04:51:58;;;;;;;15.30;1.98;;;;;;;;;;4982033;28;20497;-59
2020/12/04 04:54:25;;;;;;;11.13;2.28;;;;;;;;;;4992662;28;20025;-59
2020/12/04 04:56:53;;;;;;;7.88;2.05;;;;;;;;;;4990704;28;20484;-59
2020/12/04 04:59:23;;;;;;;7.10;2.33;;;;;;;;;;4992577;28;20047;-59
2020/12/04 05:01:51;;;;;;;11.60;2.03;;;;;;;;;;4992216;28;20022;-59
2020/12/04 05:04:18;;;;;;;10.05;1.65;;;;;;;;;;4992773;28;20109;-59
2020/12/04 05:06:45;;;;;;;12.85;1.90;;;;;;;;;;4991752;28;20026;-57
2020/12/04 05:09:16;;;;;;;10.65;1.60;;;;;;;;;;4992605;28;20101;-59
2020/12/04 05:11:56;;;;;;;7.70;1.83;;;;;;;;;;5183476;22;20061;-59
2020/12/04 05:14:27;;;;;;;7.50;1.70;;;;;;;;;;5027459;28;20484;-59
2020/12/04 05:16:55;;;;;;;5.95;1.88;;;;;;;;;;5030777;28;20115;-59
2020/12/04 05:19:36;;;;;;;11.23;1.55;;;;;;;;;;5013657;28;20044;-58
2020/12/04 05:22:17;;;;;;;7.50;1.30;;;;;;;;;;5031352;28;20075;-58
2020/12/04 05:24:44;;;;;;;9.18;1.75;;;;;;;;;;5031730;28;20030;-58
2020/12/04 05:27:28;;;;;;;5.80;1.60;;;;;;;;;;5013277;28;20392;-59
2020/12/04 05:30:01;;;;;;;6.78;1.50;;;;;;;;;;5031549;28;20117;-58
2020/12/04 05:32:29;;;;;;;8.18;1.55;;;;;;;;;;5030633;28;20040;-59
2020/12/04 05:35:06;;;;;;;8.88;1.60;;;;;;;;;;5031484;28;20384;-59
2020/12/04 05:37:33;;;;;;;5.05;1.23;;;;;;;;;;5031135;28;20029;-58
2020/12/04 05:40:00;;;;;;;5.45;1.40;;;;;;;;;;5013808;28;20010;-58
2020/12/04 05:42:35;;;;;;;6.47;1.20;;;;;;;;;;5031532;28;20029;-58
2020/12/04 05:45:03;;;;;;;8.40;1.77;;;;;;;;;;5031559;28;20021;-60
2020/12/04 05:47:46;;;;;;;6.18;1.35;;;;;;;;;;5031565;28;20449;-58
2020/12/04 05:50:14;;;;;;;6.80;1.60;;;;;;;;;;5031014;28;20025;-59
2020/12/04 05:52:41;;;;;;;7.45;1.60;;;;;;;;;;5031665;28;20101;-59
2020/12/04 05:55:09;;;;;;;11.65;1.17;;;;;;;;;;5030705;28;20038;-59
2020/12/04 05:57:56;;;;;;;4.47;1.27;;;;;;;;;;5031376;28;20021;-56
2020/12/04 06:00:23;;;;;;;6.22;1.50;;;;;;;;;;5030836;28;20029;-59
2020/12/04 06:03:16;;;;;;;5.30;1.13;;;;;;;;;;5030959;28;20017;-59
2020/12/04 06:05:43;;;;;;;7.97;1.42;;;;;;;;;;5028355;28;20046;-58
2020/12/04 06:08:11;;;;;;;5.97;1.50;;;;;;;;;;5031408;28;20018;-59
2020/12/04 06:10:38;;;;;;;8.05;1.33;;;;;;;;;;5030740;28;20049;-59
2020/12/04 06:13:05;;;;;;;9.85;1.52;;;;;;;;;;5031396;28;20025;-59
2020/12/04 06:15:33;;;;;;;4.40;1.15;;;;;;;;;;5030976;28;20380;-59
2020/12/04 06:18:05;;;;;;;7.63;1.50;;;;;;;;;;5031037;28;20028;-59
2020/12/04 06:20:46;;;;;;;7.63;1.85;;;;;;;;;;5031978;28;20026;-59
2020/12/04 06:23:14;;;;;;;9.43;1.63;;;;;;;;;;5035014;28;20025;-59
2020/12/04 06:25:52;;;;;;;7.30;1.70;;;;;;;;;;5034728;28;20071;-56
2020/12/04 06:28:20;;;;;;;6.43;1.40;;;;;;;;;;5034903;28;20490;-59
2020/12/04 06:31:05;;;;;;;7.00;1.20;;;;;;;;;;5034054;28;20021;-59
2020/12/04 06:33:38;;;;;;;4.40;1.20;;;;;;;;;;5034815;28;20562;-58
2020/12/04 06:36:06;;;;;;;5.68;1.75;;;;;;;;;;5034061;28;20041;-59
2020/12/04 06:38:37;;;;;;;5.80;1.20;;;;;;;;;;5034405;28;20036;-58
2020/12/04 06:41:21;;;;;;;7.10;1.17;;;;;;;;;;5034324;28;20026;-58
2020/12/04 06:43:49;;;;;;;7.65;1.48;;;;;;;;;;5031686;28;20025;-57
2020/12/04 06:46:32;;;;;;;8.38;1.42;;;;;;;;;;5034106;28;20025;-57
2020/12/04 06:48:58;;;;;;;;;;;;;;;;;;5034815;28;20531;-59
2020/12/04 06:51:25;;;;;;;6.43;1.13;;;;;;;;;;5032922;28;19940;-59
2020/12/04 06:53:52;;;;;;;4.93;1.17;;;;;;;;;;5034526;28;20025;-59
2020/12/04 06:56:19;;;;;;;9.45;1.50;;;;;;;;;;5033803;28;20060;-60
2020/12/04 06:58:46;;;;;;;7.00;1.25;;;;;;;;;;5034618;28;20018;-60
2020/12/04 07:01:18;;;;;;;4.60;1.05;;;;;;;;;;5034427;28;20033;-58
2020/12/04 07:03:46;;;;;;;6.90;1.52;;;;;;;;;;5033985;28;20018;-60
2020/12/04 07:06:13;;;;;;;7.22;1.52;;;;;;;;;;5034157;28;20026;-59
2020/12/04 07:08:56;;;;;;;6.20;1.15;;;;;;;;;;5016097;28;20028;-60
2020/12/04 07:11:24;;;;;;;5.45;1.10;;;;;;;;;;5034035;28;20088;-60
2020/12/04 07:13:52;;;;;;;4.68;1.30;;;;;;;;;;5033391;28;20029;-59
2020/12/04 07:16:19;;;;;;;5.30;1.20;;;;;;;;;;5033846;28;20587;-59
2020/12/04 07:18:52;;;;;;;5.18;1.33;;;;;;;;;;5033786;28;20021;-59
2020/12/04 07:21:20;;;;;;;5.00;1.33;;;;;;;;;;5033826;28;20033;-59
2020/12/04 07:23:47;;;;;;;4.97;1.08;;;;;;;;;;5033474;28;20017;-60
2020/12/04 07:26:18;;;;;;;4.85;1.40;;;;;;;;;;5033718;28;20025;-59
2020/12/04 07:28:46;;;;;;;7.93;1.73;;;;;;;;;;5033492;28;20029;-59
2020/12/04 07:31:17;;;;;;;7.10;1.10;;;;;;;;;;5033440;28;20021;-59
2020/12/04 07:34:00;;;;;;;6.95;1.55;;;;;;;;;;5032651;28;20050;-60
2020/12/04 07:36:28;;;;;;;5.80;1.52;;;;;;;;;;5033284;28;20034;-60
2020/12/04 07:39:05;;;;;;;3.58;0.90;;;;;;;;;;5033376;28;20022;-59
2020/12/04 07:41:38;;;;;;;4.90;1.38;;;;;;;;;;5033674;28;20021;-59
2020/12/04 07:44:06;;;;;;;6.15;1.35;;;;;;;;;;5033131;28;20216;-59
2020/12/04 07:46:34;;;;;;;9.32;1.80;;;;;;;;;;5033319;28;20025;-59
2020/12/04 07:49:08;;;;;;;3.92;1.10;;;;;;;;;;5033631;28;20032;-57
2020/12/04 07:51:36;;;;;;;5.68;1.38;;;;;;;;;;5033046;28;20092;-59
2020/12/04 07:54:18;;;;;;;4.20;1.20;;;;;;;;;;5033306;28;20026;-59
2020/12/04 07:56:55;;;;;;;4.40;1.20;;;;;;;;;;5032680;28;20057;-60
2020/12/04 07:59:32;;;;;;;5.95;1.38;;;;;;;;;;5033436;28;20391;-59
2020/12/04 08:02:00;;;;;;;8.32;1.45;;;;;;;;;;5032744;28;20021;-59
2020/12/04 08:04:28;;;;;;;5.95;1.23;;;;;;;;;;5033344;28;20022;-59
2020/12/04 08:07:15;;;;;;;6.35;1.00;;;;;;;;;;5032299;28;20472;-59
2020/12/04 08:09:45;;;;;;;8.07;1.45;;;;;;;;;;5033140;28;20112;-59
2020/12/04 08:12:19;;;;;;;4.60;1.10;;;;;;;;;;5032291;28;20050;-59
2020/12/04 08:14:53;;;;;;;5.85;1.30;;;;;;;;;;5033176;28;20026;-59
2020/12/04 08:17:21;;;;;;;5.43;1.27;;;;;;;;;;5033015;28;20416;-59
2020/12/04 08:19:48;;;;;;;6.93;1.23;;;;;;;;;;5032544;28;20029;-58
2020/12/04 08:22:16;;;;;;;3.28;1.30;;;;;;;;;;5030394;28;20021;-59
2020/12/04 08:25:04;;;;;;;7.38;1.50;;;;;;;;;;5032910;28;20028;-59
2020/12/04 08:27:32;;;;;;;7.72;1.20;;;;;;;;;;5032256;28;20376;-59
2020/12/04 08:30:04;;;;;;;5.38;1.40;;;;;;;;;;5033133;28;20025;-59
2020/12/04 08:32:31;;;;;;;3.55;1.13;;;;;;;;;;5032160;28;20032;-59
2020/12/04 08:35:11;;;;;;;9.52;1.27;;;;;;;;;;5032589;28;20401;-58
2020/12/04 08:37:38;;;;;;;8.13;1.33;;;;;;;;;;5032141;28;20028;-59
2020/12/04 08:40:06;;;;;;;6.50;1.35;;;;;;;;;;5032450;28;20031;-58
2020/12/04 08:42:34;;;;;;;4.75;1.35;;;;;;;;;;5032177;28;20484;-58
2020/12/04 08:45:08;;;;;;;4.68;1.25;;;;;;;;;;5031963;28;20163;-59
2020/12/04 08:47:35;;;;;;;4.45;1.20;;;;;;;;;;5032083;28;20115;-59
2020/12/04 08:50:16;;;;;;;4.32;1.13;;;;;;;;;;5031717;28;20806;-59
2020/12/04 08:52:43;;;;;;;3.88;1.08;;;;;;;;;;5032414;28;20025;-57
2020/12/04 08:55:11;;;;;;;10.13;1.48;;;;;;;;;;5031762;28;20033;-58
2020/12/04 08:57:39;;;;;;;6.30;1.40;;;;;;;;;;5031881;28;20362;-58
2020/12/04 09:00:07;;;;;;;8.32;1.30;;;;;;;;;;5014192;28;20024;-58
2020/12/04 09:02:34;;;;;;;9.55;1.58;;;;;;;;;;5032090;28;20072;-58
2020/12/04 09:05:02;;;;;;;6.03;1.13;;;;;;;;;;5031622;28;20574;-59
2020/12/04 09:07:29;;;;;;;4.45;1.38;;;;;;;;;;5031960;28;20446;-58
2020/12/04 09:09:56;;;;;;;7.60;1.95;;;;;;;;;;5031377;28;20017;-59
2020/12/04 09:12:24;;;;;;;6.72;1.50;;;;;;;;;;5031850;28;20072;-58
2020/12/04 09:14:51;;;;;;;8.25;1.70;;;;;;;;;;5012021;28;20052;-59
2020/12/04 09:17:18;;;;;;;6.55;1.25;;;;;;;;;;5030549;28;20029;-58
2020/12/04 09:19:45;;;;;;;8.13;1.13;;;;;;;;;;5031528;28;20129;-59
2020/12/04 09:22:13;;;;;;;6.40;1.70;;;;;;;;;;5031921;28;20029;-58
2020/12/04 09:24:40;;;;;;;6.57;1.50;;;;;;;;;;5031789;28;20037;-53
2020/12/04 09:27:08;;;;;;;6.63;1.30;;;;;;;;;;5031255;28;20041;-58
2020/12/04 09:29:35;;;;;;;9.70;1.55;;;;;;;;;;5031762;28;20017;-59
2020/12/04 09:32:06;;;;;;;10.25;1.58;;;;;;;;;;5031281;28;20125;-59
2020/12/04 09:34:33;;;;;;;8.73;1.58;;;;;;;;;;5031826;28;20009;-59
2020/12/04 09:37:32;;;;;;;7.93;1.45;;;;;;;;;;5031080;28;20499;-59
2020/12/04 09:40:02;;;;;;;7.32;1.33;;;;;;;;;;4978043;28;20048;-58
2020/12/04 09:42:29;;;;;;;5.80;1.50;;;;;;;;;;5031262;28;20139;-59
2020/12/04 09:44:56;;;;;;;11.02;2.15;;;;;;;;;;5031671;28;20040;-59
2020/12/04 09:47:24;;;;;;;11.32;1.40;;;;;;;;;;5031154;28;20477;-59
2020/12/04 09:49:56;;;;;;;10.48;1.60;;;;;;;;;;5031413;28;20109;-59
2020/12/04 09:52:24;;;;;;;6.95;1.60;;;;;;;;;;5030839;28;20393;-59
2020/12/04 09:54:51;;;;;;;8.20;1.75;;;;;;;;;;5031562;28;20041;-59
2020/12/04 09:57:19;;;;;;;10.00;1.75;;;;;;;;;;5035011;28;20127;-59
2020/12/04 09:59:46;;;;;;;8.30;1.33;;;;;;;;;;5035399;28;20068;-59
2020/12/04 10:02:13;;;;;;;5.50;1.40;;;;;;;;;;5035509;28;20035;-59
2020/12/04 10:04:40;;;;;;;7.72;1.88;;;;;;;;;;5034978;28;20021;-59
2020/12/04 10:07:08;;;;;;;7.03;2.10;;;;;;;;;;5035184;28;20527;-59
2020/12/04 10:09:35;;;;;;;8.52;1.38;;;;;;;;;;5034768;28;20026;-59
2020/12/04 10:12:03;;;;;;;4.88;1.35;;;;;;;;;;5034973;28;20041;-59
2020/12/04 10:14:30;;;;;;;12.05;1.70;;;;;;;;;;5034499;28;20060;-59
2020/12/04 10:16:57;;;;;;;12.05;2.53;;;;;;;;;;5035237;28;20033;-59
2020/12/04 10:19:24;;;;;;;11.80;2.20;;;;;;;;;;5034418;28;20036;-59
2020/12/04 10:21:51;;;;;;;8.02;2.08;;;;;;;;;;5034780;28;20025;-59
2020/12/04 10:24:19;;;;;;;9.20;1.98;;;;;;;;;;5034664;28;20095;-59
2020/12/04 10:26:50;;;;;;;10.02;2.30;;;;;;;;;;5035070;28;20044;-59
2020/12/04 10:29:20;;;;;;;9.27;2.40;;;;;;;;;;5034186;28;20099;-57
2020/12/04 10:31:48;;;;;;;11.63;2.72;;;;;;;;;;5034822;28;20053;-59
2020/12/04 10:34:16;;;;;;;7.55;1.73;;;;;;;;;;5034895;28;20025;-59
2020/12/04 10:36:43;;;;;;;7.15;2.22;;;;;;;;;;5034544;28;20034;-59
2020/12/04 10:39:11;;;;;;;12.85;2.10;;;;;;;;;;5034632;28;20023;-59
2020/12/04 10:41:39;;;;;;;14.00;2.47;;;;;;;;;;5036504;28;20116;-56
2020/12/04 10:44:07;;;;;;;12.07;2.88;;;;;;;;;;5037056;28;20017;-59
2020/12/04 10:46:35;;;;;;;19.35;2.72;;;;;;;;;;5033572;28;20033;-59
2020/12/04 10:49:02;;;;;;;42.92;4.82;;;;;;;;;;5033277;28;20017;-58
2020/12/04 10:51:29;;;;;;;35.35;4.60;;;;;;;;;;5034049;28;20585;-58
2020/12/04 10:53:56;;;;;;;28.58;4.22;;;;;;;;;;5032968;28;20029;-58
2020/12/04 10:56:24;;;;;;;37.85;4.97;;;;;;;;;;5033754;28;20071;-58
2020/12/04 10:58:52;;;;;;;35.78;4.72;;;;;;;;;;5034427;28;20021;-58
2020/12/04 11:01:44;;;;;;;31.05;4.90;;;;;;;;;;5033789;28;20510;-58
2020/12/04 11:06:51;;;;;;;34.38;4.93;;;;;;;;;;5033940;28;20039;-58
2020/12/04 11:09:18;;;;;;;29.55;4.75;;;;;;;;;;5033900;28;20048;-58
2020/12/04 11:11:45;;;;;;;42.47;4.90;;;;;;;;;;5032462;28;20052;-57
2020/12/04 11:14:12;;;;;;;141.43;8.93;;;;;;;;;;5032674;28;20381;-54
2020/12/04 11:16:43;;;;;;;43.45;4.65;;;;;;;;;;5033558;28;20132;-60
2020/12/04 11:19:10;;;;;;;437.70;33.88;;;;;;;;;;5032676;28;20101;-63
2020/12/04 11:21:37;;;;;;;122.82;12.57;;;;;;;;;;5019549;28;20022;-65
2020/12/04 11:24:04;;;;;;;194.77;16.35;;;;;;;;;;5033194;28;20385;-64
2020/12/04 11:26:31;;;;;;;83.00;9.65;;;;;;;;;;5033675;28;20021;-68
2020/12/04 11:28:58;;;;;;;54.58;7.10;;;;;;;;;;5033748;28;20098;-56
2020/12/04 11:31:25;;;;;;;83.45;9.05;;;;;;;;;;5033838;28;20029;-60
2020/12/04 11:33:52;;;;;;;55.15;6.25;;;;;;;;;;5033515;28;20420;-63
2020/12/04 11:36:19;;;;;;;64.65;7.50;;;;;;;;;;5026031;28;20037;-57
2020/12/04 11:38:46;;;;;;;59.10;6.88;;;;;;;;;;5031423;28;20032;-50
2020/12/04 11:41:13;;;;;;;57.38;6.25;;;;;;;;;;5033017;28;20033;-55
2020/12/04 11:43:40;;;;;;;72.47;8.82;;;;;;;;;;5033431;28;20018;-56
2020/12/04 11:46:07;;;;;;;176.90;15.60;;;;;;;;;;5032146;28;20056;-59
2020/12/04 11:48:34;;;;;;;174.32;15.35;;;;;;;;;;5030305;28;20024;-68
2020/12/04 11:51:01;;;;;;;105.85;10.48;;;;;;;;;;5033167;28;20485;-61
2020/12/04 11:53:32;;;;;;;59.63;6.35;;;;;;;;;;5015221;28;20105;-49
2020/12/04 11:55:59;;;;;;;42.80;5.30;;;;;;;;;;5023356;28;20037;-44
2020/12/04 11:58:26;;;;;;;24.30;3.17;;;;;;;;;;5032431;28;20092;-49
2020/12/04 12:00:53;;;;;;;25.35;3.33;;;;;;;;;;5031819;28;20556;-48
2020/12/04 12:03:20;;;;;;;27.52;3.42;;;;;;;;;;5014537;28;20037;-49
2020/12/04 12:05:48;;;;;;;20.95;2.92;;;;;;;;;;5032153;28;20026;-50
2020/12/04 12:08:15;;;;;;;24.85;2.65;;;;;;;;;;5032680;28;20048;-52
2020/12/04 12:10:42;;;;;;;23.52;2.75;;;;;;;;;;5023158;28;20029;-49
2020/12/04 12:13:09;;;;;;;21.50;2.90;;;;;;;;;;5027168;28;20098;-58
2020/12/04 12:15:36;;;;;;;27.27;3.25;;;;;;;;;;5017025;28;20038;-53
2020/12/04 12:18:03;;;;;;;21.65;3.15;;;;;;;;;;5011522;28;20053;-58
2020/12/04 12:20:30;;;;;;;30.17;3.88;;;;;;;;;;5026065;28;20064;-56
2020/12/04 12:22:57;;;;;;;31.92;3.90;;;;;;;;;;5026433;28;20036;-50
2020/12/04 12:25:24;;;;;;;27.88;2.53;;;;;;;;;;5029162;28;20041;-57
2020/12/04 12:28:24;;;;;;;31.02;3.72;;;;;;;;;;5013788;28;20485;-57
2020/12/04 12:30:51;;;;;;;55.53;4.60;;;;;;;;;;5030114;28;20104;-64
2020/12/04 12:33:18;;;;;;;34.28;4.55;;;;;;;;;;5029388;28;20052;-50
2020/12/04 12:35:45;;;;;;;53.35;7.93;;;;;;;;;;5031118;28;20060;-59
2020/12/04 12:38:12;;;;;;;45.80;5.50;;;;;;;;;;5032060;28;20722;-56
2020/12/04 12:40:39;;;;;;;40.55;4.75;;;;;;;;;;5032361;28;20052;-64
2020/12/04 12:43:06;;;;;;;29.85;4.05;;;;;;;;;;5027492;28;20461;-53
2020/12/04 12:45:33;;;;;;;34.60;3.83;;;;;;;;;;5013683;28;20056;-60
2020/12/04 12:48:00;;;;;;;57.28;4.85;;;;;;;;;;5031973;28;20032;-61
2020/12/04 12:50:27;;;;;;;35.95;4.10;;;;;;;;;;5031978;28;20026;-62
2020/12/04 12:52:54;;;;;;;37.38;4.80;;;;;;;;;;5031709;28;20489;-63
2020/12/04 12:55:21;;;;;;;32.45;4.00;;;;;;;;;;5031927;28;20135;-66
2020/12/04 12:57:53;;;;;;;;;;;;;;;;;;5032374;28;20404;-63
2020/12/04 13:00:20;;;;;;;46.85;5.88;;;;;;;;;;5030930;28;19908;-58
2020/12/04 13:02:48;;;;;;;40.35;4.13;;;;;;;;;;5019265;28;20739;-61
2020/12/04 13:05:34;;;;;;;31.33;4.40;;;;;;;;;;5030796;28;20026;-52
2020/12/04 13:08:04;;;;;;;33.50;4.43;;;;;;;;;;5031720;28;20053;-57
2020/12/04 13:10:31;;;;;;;47.78;5.10;;;;;;;;;;5031609;28;20028;-68
2020/12/04 13:12:58;;;;;;;38.17;5.25;;;;;;;;;;5031351;28;20107;-62
2020/12/04 13:15:25;;;;;;;31.40;4.13;;;;;;;;;;5031328;28;20129;-61
2020/12/04 13:17:53;;;;;;;38.28;4.93;;;;;;;;;;5031577;28;20536;-60
2020/12/04 13:20:20;;;;;;;43.85;5.50;;;;;;;;;;5026559;28;20056;-67
2020/12/04 13:25:33;;;;;;;64.15;7.18;;;;;;;;;;5030860;28;20105;-63
2020/12/04 13:28:00;;;;;;;51.75;6.88;;;;;;;;;;5030146;28;20547;-64
2020/12/04 13:30:27;;;;;;;49.38;6.07;;;;;;;;;;5030455;28;20036;-60
2020/12/04 13:32:55;;;;;;;69.70;7.55;;;;;;;;;;5030959;28;20033;-56
2020/12/04 13:35:21;;;;;;;71.15;8.57;;;;;;;;;;5030276;28;20029;-60
2020/12/04 13:37:48;;;;;;;64.95;6.70;;;;;;;;;;5206839;22;20228;-60
2020/12/04 13:40:16;;;;;;;67.70;6.32;;;;;;;;;;5019911;28;20105;-59
2020/12/04 13:42:43;;;;;;;55.30;5.82;;;;;;;;;;5028256;28;20029;-60
2020/12/04 13:45:10;;;;;;;65.38;6.20;;;;;;;;;;5028591;28;20026;-59
2020/12/04 13:47:37;;;;;;;56.05;6.93;;;;;;;;;;5023587;28;20025;-57
2020/12/04 13:50:04;;;;;;;45.35;5.80;;;;;;;;;;5026486;28;20109;-57
2020/12/04 13:52:31;;;;;;;84.13;9.35;;;;;;;;;;5009206;28;20037;-57
2020/12/04 13:54:58;;;;;;;73.45;9.82;;;;;;;;;;5024090;28;20014;-57
2020/12/04 13:57:25;;;;;;;116.75;11.98;;;;;;;;;;5007496;28;20417;-57
2020/12/04 13:59:52;;;;;;;71.45;11.13;;;;;;;;;;5028494;28;20025;-57
2020/12/04 14:02:19;;;;;;;87.43;10.00;;;;;;;;;;5019542;28;20453;-57
2020/12/04 14:04:46;;;;;;;78.30;8.40;;;;;;;;;;5024852;28;20041;-61
2020/12/04 14:07:13;;;;;;;62.88;8.05;;;;;;;;;;5023857;28;20033;-59
2020/12/04 14:09:40;;;;;;;73.32;9.18;;;;;;;;;;5024010;28;20024;-60
2020/12/04 14:12:07;;;;;;;74.25;9.40;;;;;;;;;;5024786;28;20022;-60
2020/12/04 14:14:34;;;;;;;84.90;9.82;;;;;;;;;;5025907;28;20113;-60
2020/12/04 14:17:01;;;;;;;69.13;9.23;;;;;;;;;;5026618;28;20099;-61
2020/12/04 14:19:28;;;;;;;98.35;10.40;;;;;;;;;;5024590;28;20483;-57
2020/12/04 14:21:55;;;;;;;59.78;7.53;;;;;;;;;;5027276;28;20490;-55
2020/12/04 14:24:22;;;;;;;67.55;8.02;;;;;;;;;;5026175;28;20032;-59
2020/12/04 14:26:52;;;;;;;44.53;4.95;;;;;;;;;;5024378;28;20018;-52
2020/12/04 14:29:19;;;;;;;63.67;7.07;;;;;;;;;;5028922;28;20029;-55
2020/12/04 14:31:46;;;;;;;54.08;6.72;;;;;;;;;;5030686;28;20083;-59
2020/12/04 14:34:13;;;;;;;45.25;5.90;;;;;;;;;;5024160;28;20485;-57
2020/12/04 14:36:40;;;;;;;56.90;6.45;;;;;;;;;;5025918;28;20120;-50
2020/12/04 14:39:08;;;;;;;57.72;6.40;;;;;;;;;;5029306;28;20057;-58
2020/12/04 14:41:43;;;;;;;55.38;6.15;;;;;;;;;;5031542;28;20028;-57
2020/12/04 14:44:11;;;;;;;53.50;6.32;;;;;;;;;;5033798;28;20021;-51
2020/12/04 14:46:38;;;;;;;61.75;6.85;;;;;;;;;;5028103;28;20022;-50
2020/12/04 14:49:05;;;;;;;45.58;6.20;;;;;;;;;;5024493;28;20021;-50